FAD411 OEHL-OEMA
Flight info
| Callsign | FAD411 |
|---|---|
| Flight time | N/A |
| Altitude | 28000 |
| Route | LOXOR Q218 LABKO |
| Aircraft | A320/M-SDE3FGHIRWY/LB1 |
Departure
| Time | 2026-05-07 12:03 |
|---|---|
| Airport | Hail International Airport (OEHL) |
Arrival
| Time | N/A |
|---|---|
| Airport | Prince Mohammad Bin Abdulaziz Airport (OEMA) |
| Time | Latitude | Longitude | Altitude | Speed | Heading |
|---|---|---|---|---|---|
| 2026-05-07 11:31 | 27.43909 | 41.68944 | 3305 ft | 0 kts | 94° |
| 2026-05-07 11:37 | 27.43909 | 41.68943 | 3306 ft | 0 kts | 110° |
| 2026-05-07 11:38 | 27.43909 | 41.68942 | 3306 ft | 0 kts | 104° |
| 2026-05-07 11:38 | 27.43910 | 41.68941 | 3306 ft | 0 kts | 101° |
| 2026-05-07 11:39 | 27.43910 | 41.68940 | 3306 ft | 0 kts | 102° |
| 2026-05-07 11:39 | 27.43910 | 41.68939 | 3306 ft | 0 kts | 102° |
| 2026-05-07 11:40 | 27.43910 | 41.68938 | 3305 ft | 0 kts | 101° |
| 2026-05-07 11:40 | 27.43910 | 41.68937 | 3305 ft | 0 kts | 99° |
| 2026-05-07 11:40 | 27.43910 | 41.68936 | 3305 ft | 0 kts | 99° |
| 2026-05-07 11:41 | 27.43911 | 41.68935 | 3305 ft | 0 kts | 98° |
| 2026-05-07 11:41 | 27.43911 | 41.68934 | 3305 ft | 0 kts | 98° |
| 2026-05-07 11:41 | 27.43911 | 41.68933 | 3305 ft | 0 kts | 97° |
| 2026-05-07 11:42 | 27.43911 | 41.68932 | 3305 ft | 0 kts | 97° |
| 2026-05-07 11:42 | 27.43911 | 41.68931 | 3305 ft | 0 kts | 97° |
| 2026-05-07 11:43 | 27.43911 | 41.68930 | 3305 ft | 0 kts | 96° |
| 2026-05-07 11:43 | 27.43911 | 41.68929 | 3305 ft | 0 kts | 96° |
| 2026-05-07 11:43 | 27.43911 | 41.68928 | 3305 ft | 0 kts | 96° |
| 2026-05-07 11:44 | 27.43911 | 41.68927 | 3305 ft | 0 kts | 95° |
| 2026-05-07 11:46 | 27.43912 | 41.68927 | 3305 ft | 0 kts | 96° |
| 2026-05-07 11:48 | 27.43911 | 41.68928 | 3305 ft | 0 kts | 97° |
| 2026-05-07 11:50 | 27.43912 | 41.68928 | 3305 ft | 0 kts | 97° |
| 2026-05-07 11:54 | 27.43915 | 41.68900 | 3305 ft | 0 kts | 98° |
| 2026-05-07 11:55 | 27.43919 | 41.68871 | 3305 ft | 0 kts | 98° |
| 2026-05-07 11:55 | 27.43923 | 41.68842 | 3304 ft | 0 kts | 98° |
| 2026-05-07 11:55 | 27.43925 | 41.68825 | 3304 ft | 0 kts | 98° |
| 2026-05-07 11:56 | 27.43925 | 41.68826 | 3304 ft | 0 kts | 98° |
| 2026-05-07 11:57 | 27.43923 | 41.68840 | 3304 ft | 4 kts | 99° |
| 2026-05-07 11:57 | 27.43920 | 41.68860 | 3304 ft | 2 kts | 96° |
| 2026-05-07 11:57 | 27.43920 | 41.68873 | 3305 ft | 1 kts | 88° |
| 2026-05-07 11:58 | 27.43922 | 41.68879 | 3305 ft | 0 kts | 68° |
| 2026-05-07 11:58 | 27.43923 | 41.68881 | 3305 ft | 0 kts | 59° |
| 2026-05-07 11:58 | 27.43947 | 41.68897 | 3305 ft | 10 kts | 343° |
| 2026-05-07 11:58 | 27.44031 | 41.68866 | 3303 ft | 14 kts | 0° |
| 2026-05-07 11:59 | 27.44139 | 41.68874 | 3301 ft | 16 kts | 4° |
| 2026-05-07 11:59 | 27.44262 | 41.68882 | 3301 ft | 18 kts | 4° |
| 2026-05-07 11:59 | 27.44390 | 41.68891 | 3300 ft | 19 kts | 3° |
| 2026-05-07 11:59 | 27.44533 | 41.68901 | 3298 ft | 21 kts | 4° |
| 2026-05-07 12:00 | 27.44681 | 41.68912 | 3298 ft | 21 kts | 3° |
| 2026-05-07 12:00 | 27.44828 | 41.68924 | 3298 ft | 21 kts | 5° |
| 2026-05-07 12:00 | 27.44974 | 41.68938 | 3296 ft | 21 kts | 4° |
| 2026-05-07 12:00 | 27.45125 | 41.68941 | 3295 ft | 21 kts | 2° |
| 2026-05-07 12:01 | 27.45275 | 41.68951 | 3294 ft | 21 kts | 4° |
| 2026-05-07 12:01 | 27.45406 | 41.68895 | 3292 ft | 21 kts | 315° |
| 2026-05-07 12:01 | 27.45444 | 41.68769 | 3294 ft | 15 kts | 240° |
| 2026-05-07 12:01 | 27.45341 | 41.68729 | 3295 ft | 19 kts | 182° |
| 2026-05-07 12:02 | 27.45154 | 41.68715 | 3297 ft | 46 kts | 184° |
| 2026-05-07 12:02 | 27.44601 | 41.68680 | 3298 ft | 109 kts | 182° |
| 2026-05-07 12:02 | 27.43664 | 41.68615 | 3308 ft | 160 kts | 184° |
| 2026-05-07 12:02 | 27.42445 | 41.68534 | 3563 ft | 182 kts | 182° |
| 2026-05-07 12:03 | 27.41179 | 41.68435 | 4097 ft | 185 kts | 183° |
| 2026-05-07 12:03 | 27.39909 | 41.68336 | 4804 ft | 182 kts | 185° |
| 2026-05-07 12:03 | 27.38734 | 41.67871 | 5336 ft | 185 kts | 220° |
| 2026-05-07 12:03 | 27.38103 | 41.66593 | 5587 ft | 201 kts | 258° |
| 2026-05-07 12:04 | 27.38216 | 41.64975 | 5856 ft | 218 kts | 280° |
| 2026-05-07 12:04 | 27.38389 | 41.63233 | 6101 ft | 227 kts | 258° |
| 2026-05-07 12:04 | 27.37891 | 41.61521 | 6308 ft | 242 kts | 245° |
| 2026-05-07 12:04 | 27.37191 | 41.59750 | 6727 ft | 252 kts | 244° |
| 2026-05-07 12:05 | 27.36475 | 41.57950 | 7384 ft | 252 kts | 244° |
| 2026-05-07 12:05 | 27.35776 | 41.56150 | 8033 ft | 253 kts | 245° |
| 2026-05-07 12:05 | 27.35089 | 41.54339 | 8703 ft | 254 kts | 245° |
| 2026-05-07 12:05 | 27.34407 | 41.52516 | 9248 ft | 262 kts | 245° |
| 2026-05-07 12:06 | 27.33679 | 41.50557 | 9665 ft | 276 kts | 245° |
| 2026-05-07 12:06 | 27.32945 | 41.48569 | 10317 ft | 281 kts | 246° |
| 2026-05-07 12:06 | 27.32182 | 41.46494 | 10787 ft | 295 kts | 246° |
| 2026-05-07 12:06 | 27.31373 | 41.44292 | 11126 ft | 313 kts | 246° |
| 2026-05-07 12:07 | 27.30521 | 41.41973 | 11558 ft | 327 kts | 246° |
| 2026-05-07 12:07 | 27.29654 | 41.39608 | 12250 ft | 331 kts | 246° |
| 2026-05-07 12:07 | 27.28780 | 41.37221 | 13040 ft | 334 kts | 246° |
| 2026-05-07 12:07 | 27.27893 | 41.34800 | 13842 ft | 335 kts | 246° |
| 2026-05-07 12:08 | 27.27018 | 41.32406 | 14581 ft | 339 kts | 246° |
| 2026-05-07 12:08 | 27.26113 | 41.29929 | 15312 ft | 344 kts | 246° |
| 2026-05-07 12:08 | 27.25208 | 41.27456 | 16066 ft | 347 kts | 246° |
| 2026-05-07 12:08 | 27.24283 | 41.24933 | 16858 ft | 349 kts | 246° |
| 2026-05-07 12:09 | 27.23368 | 41.22448 | 17568 ft | 352 kts | 245° |
| 2026-05-07 12:09 | 27.22428 | 41.19898 | 18281 ft | 354 kts | 246° |
| 2026-05-07 12:09 | 27.21489 | 41.17356 | 18979 ft | 356 kts | 246° |
| 2026-05-07 12:09 | 27.20537 | 41.14779 | 19677 ft | 359 kts | 246° |
| 2026-05-07 12:10 | 27.19583 | 41.12201 | 20378 ft | 361 kts | 246° |
| 2026-05-07 12:10 | 27.18621 | 41.09599 | 21115 ft | 361 kts | 246° |
| 2026-05-07 12:10 | 27.17657 | 41.06995 | 21891 ft | 362 kts | 246° |
| 2026-05-07 12:10 | 27.16701 | 41.04409 | 22610 ft | 363 kts | 246° |
| 2026-05-07 12:11 | 27.15557 | 41.01905 | 23281 ft | 364 kts | 236° |
| 2026-05-07 12:11 | 27.13916 | 40.99729 | 23907 ft | 366 kts | 224° |
| 2026-05-07 12:11 | 27.11876 | 40.98003 | 24532 ft | 369 kts | 213° |
| 2026-05-07 12:11 | 27.09681 | 40.96547 | 25101 ft | 371 kts | 212° |
| 2026-05-07 12:12 | 27.07436 | 40.95080 | 25567 ft | 374 kts | 212° |
| 2026-05-07 12:12 | 27.05161 | 40.93603 | 26028 ft | 377 kts | 212° |
| 2026-05-07 12:12 | 27.02907 | 40.92139 | 26533 ft | 378 kts | 212° |
| 2026-05-07 12:12 | 27.00616 | 40.90652 | 27045 ft | 379 kts | 212° |
| 2026-05-07 12:13 | 26.98343 | 40.89176 | 27535 ft | 380 kts | 212° |
| 2026-05-07 12:13 | 26.96040 | 40.87687 | 27925 ft | 381 kts | 212° |
| 2026-05-07 12:13 | 26.93755 | 40.86206 | 28076 ft | 381 kts | 213° |
| 2026-05-07 12:14 | 26.89177 | 40.83242 | 28088 ft | 380 kts | 212° |
| 2026-05-07 12:14 | 26.84600 | 40.80298 | 28083 ft | 380 kts | 212° |
| 2026-05-07 12:15 | 26.80000 | 40.77338 | 28076 ft | 380 kts | 212° |
| 2026-05-07 12:15 | 26.75435 | 40.74395 | 28079 ft | 379 kts | 212° |
| 2026-05-07 12:16 | 26.70844 | 40.71434 | 28077 ft | 380 kts | 213° |
| 2026-05-07 12:16 | 26.66269 | 40.68484 | 28074 ft | 380 kts | 213° |
| 2026-05-07 12:17 | 26.61686 | 40.65532 | 28076 ft | 380 kts | 212° |
| 2026-05-07 12:17 | 26.57115 | 40.62592 | 28071 ft | 381 kts | 212° |
| 2026-05-07 12:18 | 26.52509 | 40.59631 | 28064 ft | 380 kts | 212° |
| 2026-05-07 12:18 | 26.47928 | 40.56694 | 28066 ft | 381 kts | 213° |
| 2026-05-07 12:19 | 26.43347 | 40.53755 | 28073 ft | 381 kts | 212° |
| 2026-05-07 12:19 | 26.38752 | 40.50812 | 28069 ft | 381 kts | 212° |
| 2026-05-07 12:20 | 26.34143 | 40.47863 | 28076 ft | 382 kts | 212° |
| 2026-05-07 12:20 | 26.29522 | 40.44906 | 28073 ft | 382 kts | 212° |
| 2026-05-07 12:21 | 26.24919 | 40.41965 | 28071 ft | 381 kts | 212° |
| 2026-05-07 12:21 | 26.20284 | 40.39003 | 28081 ft | 382 kts | 212° |
| 2026-05-07 12:22 | 26.15684 | 40.36071 | 28073 ft | 381 kts | 212° |
| 2026-05-07 12:22 | 26.11074 | 40.33127 | 28095 ft | 382 kts | 212° |
| 2026-05-07 12:23 | 26.06487 | 40.30189 | 28099 ft | 382 kts | 212° |
| 2026-05-07 12:23 | 26.01869 | 40.27245 | 28101 ft | 382 kts | 212° |
| 2026-05-07 12:24 | 25.97262 | 40.24320 | 28104 ft | 382 kts | 212° |
| 2026-05-07 12:24 | 25.92628 | 40.21382 | 28113 ft | 382 kts | 212° |
| 2026-05-07 12:25 | 25.88012 | 40.18462 | 28123 ft | 382 kts | 212° |
| 2026-05-07 12:25 | 25.83351 | 40.15529 | 28130 ft | 383 kts | 212° |
| 2026-05-07 12:26 | 25.78726 | 40.12608 | 28149 ft | 383 kts | 212° |
| 2026-05-07 12:26 | 25.74080 | 40.09677 | 28160 ft | 384 kts | 212° |
| 2026-05-07 12:27 | 25.69441 | 40.06742 | 28179 ft | 383 kts | 212° |
| 2026-05-07 12:27 | 25.64818 | 40.03822 | 28181 ft | 383 kts | 212° |
| 2026-05-07 12:28 | 25.60168 | 40.00890 | 28196 ft | 383 kts | 212° |